sensor_id;sensor_type;location;lat;lon;timestamp;temperature;humidity
66568;DHT22;53422;49.296;6.900;2024-03-29T00:02:04;7.80;99.90
66568;DHT22;53422;49.296;6.900;2024-03-29T00:04:29;7.80;99.90
66568;DHT22;53422;49.296;6.900;2024-03-29T00:06:55;7.80;99.90
66568;DHT22;53422;49.296;6.900;2024-03-29T00:09:21;7.80;99.90
66568;DHT22;53422;49.296;6.900;2024-03-29T00:11:46;7.80;99.60
66568;DHT22;53422;49.296;6.900;2024-03-29T00:14:12;7.90;99.90
66568;DHT22;53422;49.296;6.900;2024-03-29T00:16:37;7.90;99.90
66568;DHT22;53422;49.296;6.900;2024-03-29T00:19:03;7.90;99.90
66568;DHT22;53422;49.296;6.900;2024-03-29T00:21:29;7.80;99.90
66568;DHT22;53422;49.296;6.900;2024-03-29T00:23:54;7.90;99.90
66568;DHT22;53422;49.296;6.900;2024-03-29T00:26:20;7.90;99.20
66568;DHT22;53422;49.296;6.900;2024-03-29T00:28:45;7.90;99.90
66568;DHT22;53422;49.296;6.900;2024-03-29T00:31:11;7.90;99.90
66568;DHT22;53422;49.296;6.900;2024-03-29T00:33:37;7.90;99.90
66568;DHT22;53422;49.296;6.900;2024-03-29T00:36:02;7.90;99.90
66568;DHT22;53422;49.296;6.900;2024-03-29T00:38:29;8.00;99.90
66568;DHT22;53422;49.296;6.900;2024-03-29T00:40:54;8.00;99.90
66568;DHT22;53422;49.296;6.900;2024-03-29T00:43:20;8.00;99.90
66568;DHT22;53422;49.296;6.900;2024-03-29T00:45:46;7.90;99.90
66568;DHT22;53422;49.296;6.900;2024-03-29T00:48:11;7.90;99.90
66568;DHT22;53422;49.296;6.900;2024-03-29T00:50:40;7.90;99.90
66568;DHT22;53422;49.296;6.900;2024-03-29T00:53:06;7.90;99.90
66568;DHT22;53422;49.296;6.900;2024-03-29T00:55:32;7.90;99.90
66568;DHT22;53422;49.296;6.900;2024-03-29T00:57:57;7.90;99.90
66568;DHT22;53422;49.296;6.900;2024-03-29T01:00:23;7.90;99.90
66568;DHT22;53422;49.296;6.900;2024-03-29T01:02:49;7.90;99.90
66568;DHT22;53422;49.296;6.900;2024-03-29T01:05:15;7.80;99.90
66568;DHT22;53422;49.296;6.900;2024-03-29T01:07:41;7.90;99.90
66568;DHT22;53422;49.296;6.900;2024-03-29T01:10:07;7.90;99.90
66568;DHT22;53422;49.296;6.900;2024-03-29T01:12:34;7.90;99.90
66568;DHT22;53422;49.296;6.900;2024-03-29T01:15:00;7.90;99.90
66568;DHT22;53422;49.296;6.900;2024-03-29T01:17:26;7.90;99.90
66568;DHT22;53422;49.296;6.900;2024-03-29T01:19:51;7.90;99.90
66568;DHT22;53422;49.296;6.900;2024-03-29T01:22:17;7.90;99.90
66568;DHT22;53422;49.296;6.900;2024-03-29T01:24:43;7.90;99.90
66568;DHT22;53422;49.296;6.900;2024-03-29T01:27:08;7.90;99.90
66568;DHT22;53422;49.296;6.900;2024-03-29T01:29:34;8.00;99.90
66568;DHT22;53422;49.296;6.900;2024-03-29T01:31:59;8.00;99.90
66568;DHT22;53422;49.296;6.900;2024-03-29T01:34:25;8.00;99.90
66568;DHT22;53422;49.296;6.900;2024-03-29T01:36:51;8.00;99.90
66568;DHT22;53422;49.296;6.900;2024-03-29T01:39:16;8.00;99.90
66568;DHT22;53422;49.296;6.900;2024-03-29T01:41:45;7.90;99.90
66568;DHT22;53422;49.296;6.900;2024-03-29T01:44:10;7.90;99.90
66568;DHT22;53422;49.296;6.900;2024-03-29T01:46:37;7.90;99.90
66568;DHT22;53422;49.296;6.900;2024-03-29T01:49:04;7.90;99.90
66568;DHT22;53422;49.296;6.900;2024-03-29T01:51:34;8.00;99.90
66568;DHT22;53422;49.296;6.900;2024-03-29T01:54:02;8.10;99.90
66568;DHT22;53422;49.296;6.900;2024-03-29T01:56:27;8.10;99.90
66568;DHT22;53422;49.296;6.900;2024-03-29T01:58:55;8.10;99.90
66568;DHT22;53422;49.296;6.900;2024-03-29T02:01:22;8.10;99.90
66568;DHT22;53422;49.296;6.900;2024-03-29T02:03:51;8.20;99.90
66568;DHT22;53422;49.296;6.900;2024-03-29T02:06:17;8.10;98.80
66568;DHT22;53422;49.296;6.900;2024-03-29T02:08:43;8.20;99.80
66568;DHT22;53422;49.296;6.900;2024-03-29T02:11:09;8.20;99.60
66568;DHT22;53422;49.296;6.900;2024-03-29T02:13:35;8.40;98.40
66568;DHT22;53422;49.296;6.900;2024-03-29T02:16:02;8.20;99.90
66568;DHT22;53422;49.296;6.900;2024-03-29T02:18:28;8.30;99.90
66568;DHT22;53422;49.296;6.900;2024-03-29T02:20:54;8.30;99.90
66568;DHT22;53422;49.296;6.900;2024-03-29T02:23:26;8.40;99.90
66568;DHT22;53422;49.296;6.900;2024-03-29T02:25:53;8.40;99.90
66568;DHT22;53422;49.296;6.900;2024-03-29T02:28:20;8.40;99.90
66568;DHT22;53422;49.296;6.900;2024-03-29T02:30:47;8.30;99.90
66568;DHT22;53422;49.296;6.900;2024-03-29T02:33:13;8.30;99.90
66568;DHT22;53422;49.296;6.900;2024-03-29T02:35:38;8.30;99.90
66568;DHT22;53422;49.296;6.900;2024-03-29T02:38:04;8.40;99.90
66568;DHT22;53422;49.296;6.900;2024-03-29T02:40:30;8.50;99.90
66568;DHT22;53422;49.296;6.900;2024-03-29T02:42:55;8.50;99.90
66568;DHT22;53422;49.296;6.900;2024-03-29T02:45:21;8.50;99.90
66568;DHT22;53422;49.296;6.900;2024-03-29T02:47:46;8.60;99.90
66568;DHT22;53422;49.296;6.900;2024-03-29T02:50:14;8.60;99.90
66568;DHT22;53422;49.296;6.900;2024-03-29T02:52:40;8.50;99.90
66568;DHT22;53422;49.296;6.900;2024-03-29T02:55:06;8.60;99.90
66568;DHT22;53422;49.296;6.900;2024-03-29T02:57:31;8.50;99.90
66568;DHT22;53422;49.296;6.900;2024-03-29T02:59:57;8.60;99.90
66568;DHT22;53422;49.296;6.900;2024-03-29T03:02:23;8.40;99.90
66568;DHT22;53422;49.296;6.900;2024-03-29T03:04:48;8.40;99.90
66568;DHT22;53422;49.296;6.900;2024-03-29T03:07:14;8.30;99.90
66568;DHT22;53422;49.296;6.900;2024-03-29T03:09:58;8.40;99.90
66568;DHT22;53422;49.296;6.900;2024-03-29T03:12:43;8.50;99.90
66568;DHT22;53422;49.296;6.900;2024-03-29T03:15:08;8.50;99.90
66568;DHT22;53422;49.296;6.900;2024-03-29T03:17:34;8.50;99.90
66568;DHT22;53422;49.296;6.900;2024-03-29T03:20:00;8.50;99.90
66568;DHT22;53422;49.296;6.900;2024-03-29T03:22:25;8.50;99.90
66568;DHT22;53422;49.296;6.900;2024-03-29T03:24:51;8.40;99.90
66568;DHT22;53422;49.296;6.900;2024-03-29T03:27:16;8.40;99.90
66568;DHT22;53422;49.296;6.900;2024-03-29T03:29:42;8.40;99.90
66568;DHT22;53422;49.296;6.900;2024-03-29T03:32:08;8.40;99.90
66568;DHT22;53422;49.296;6.900;2024-03-29T03:34:34;8.30;99.90
66568;DHT22;53422;49.296;6.900;2024-03-29T03:36:59;8.30;99.90
66568;DHT22;53422;49.296;6.900;2024-03-29T03:39:25;8.30;99.90
66568;DHT22;53422;49.296;6.900;2024-03-29T03:41:51;8.30;99.90
66568;DHT22;53422;49.296;6.900;2024-03-29T03:44:16;8.30;99.90
66568;DHT22;53422;49.296;6.900;2024-03-29T03:46:42;8.30;99.90
66568;DHT22;53422;49.296;6.900;2024-03-29T03:49:08;8.40;99.90
66568;DHT22;53422;49.296;6.900;2024-03-29T03:51:34;8.30;99.90
66568;DHT22;53422;49.296;6.900;2024-03-29T03:53:59;8.30;99.90
66568;DHT22;53422;49.296;6.900;2024-03-29T03:56:26;8.30;99.90
66568;DHT22;53422;49.296;6.900;2024-03-29T03:58:51;8.30;99.90
66568;DHT22;53422;49.296;6.900;2024-03-29T04:01:17;8.30;99.90
66568;DHT22;53422;49.296;6.900;2024-03-29T04:03:43;8.30;99.90
66568;DHT22;53422;49.296;6.900;2024-03-29T04:06:08;8.30;99.90
66568;DHT22;53422;49.296;6.900;2024-03-29T04:08:34;8.30;99.90
66568;DHT22;53422;49.296;6.900;2024-03-29T04:11:03;8.20;99.90
66568;DHT22;53422;49.296;6.900;2024-03-29T04:13:29;8.30;99.90
66568;DHT22;53422;49.296;6.900;2024-03-29T04:16:05;8.30;99.90
66568;DHT22;53422;49.296;6.900;2024-03-29T04:18:32;8.20;99.90
66568;DHT22;53422;49.296;6.900;2024-03-29T04:20:58;8.30;99.90
66568;DHT22;53422;49.296;6.900;2024-03-29T04:23:24;8.30;99.90
66568;DHT22;53422;49.296;6.900;2024-03-29T04:25:53;8.30;99.90
66568;DHT22;53422;49.296;6.900;2024-03-29T04:28:19;8.30;99.90
66568;DHT22;53422;49.296;6.900;2024-03-29T04:30:58;8.30;99.90
66568;DHT22;53422;49.296;6.900;2024-03-29T04:33:24;8.30;99.90
66568;DHT22;53422;49.296;6.900;2024-03-29T04:36:01;8.30;99.90
66568;DHT22;53422;49.296;6.900;2024-03-29T04:38:28;8.20;99.90
66568;DHT22;53422;49.296;6.900;2024-03-29T04:40:55;8.30;99.90
66568;DHT22;53422;49.296;6.900;2024-03-29T04:43:22;8.30;99.90
66568;DHT22;53422;49.296;6.900;2024-03-29T04:45:48;8.30;99.90
66568;DHT22;53422;49.296;6.900;2024-03-29T04:48:14;8.30;99.90
66568;DHT22;53422;49.296;6.900;2024-03-29T04:50:40;8.30;99.90
66568;DHT22;53422;49.296;6.900;2024-03-29T04:53:07;8.30;99.90
66568;DHT22;53422;49.296;6.900;2024-03-29T04:55:33;8.30;99.90
66568;DHT22;53422;49.296;6.900;2024-03-29T04:58:00;8.40;99.90
66568;DHT22;53422;49.296;6.900;2024-03-29T05:00:26;8.40;99.90
66568;DHT22;53422;49.296;6.900;2024-03-29T05:02:52;8.50;99.90
66568;DHT22;53422;49.296;6.900;2024-03-29T05:05:18;8.50;99.90
66568;DHT22;53422;49.296;6.900;2024-03-29T05:07:43;8.50;99.90
66568;DHT22;53422;49.296;6.900;2024-03-29T05:10:09;8.40;99.90
66568;DHT22;53422;49.296;6.900;2024-03-29T05:12:38;8.40;99.90
66568;DHT22;53422;49.296;6.900;2024-03-29T05:15:04;8.40;99.90
66568;DHT22;53422;49.296;6.900;2024-03-29T05:17:30;8.40;99.90
66568;DHT22;53422;49.296;6.900;2024-03-29T05:19:56;8.30;99.90
66568;DHT22;53422;49.296;6.900;2024-03-29T05:22:21;8.30;99.90
66568;DHT22;53422;49.296;6.900;2024-03-29T05:24:47;8.30;99.90
66568;DHT22;53422;49.296;6.900;2024-03-29T05:27:13;8.40;99.90
66568;DHT22;53422;49.296;6.900;2024-03-29T05:29:39;8.30;99.90
66568;DHT22;53422;49.296;6.900;2024-03-29T05:32:06;8.30;99.90
66568;DHT22;53422;49.296;6.900;2024-03-29T05:34:32;8.30;99.90
66568;DHT22;53422;49.296;6.900;2024-03-29T05:36:57;8.40;99.90
66568;DHT22;53422;49.296;6.900;2024-03-29T05:39:23;8.40;99.90
66568;DHT22;53422;49.296;6.900;2024-03-29T05:41:49;8.40;99.90
66568;DHT22;53422;49.296;6.900;2024-03-29T05:44:15;8.30;99.90
66568;DHT22;53422;49.296;6.900;2024-03-29T05:46:40;8.40;99.90
66568;DHT22;53422;49.296;6.900;2024-03-29T05:49:06;8.40;99.90
66568;DHT22;53422;49.296;6.900;2024-03-29T05:51:32;8.30;99.90
66568;DHT22;53422;49.296;6.900;2024-03-29T05:54:00;8.40;99.90
66568;DHT22;53422;49.296;6.900;2024-03-29T05:56:25;8.40;99.90
66568;DHT22;53422;49.296;6.900;2024-03-29T05:58:51;8.40;99.90
66568;DHT22;53422;49.296;6.900;2024-03-29T06:01:17;8.40;99.90
66568;DHT22;53422;49.296;6.900;2024-03-29T06:03:42;8.40;99.90
66568;DHT22;53422;49.296;6.900;2024-03-29T06:06:08;8.40;99.90
66568;DHT22;53422;49.296;6.900;2024-03-29T06:08:37;8.30;99.90
66568;DHT22;53422;49.296;6.900;2024-03-29T06:11:03;8.40;99.90
66568;DHT22;53422;49.296;6.900;2024-03-29T06:13:29;8.30;99.90
66568;DHT22;53422;49.296;6.900;2024-03-29T06:16:25;8.30;99.90
66568;DHT22;53422;49.296;6.900;2024-03-29T06:19:09;8.30;99.90
66568;DHT22;53422;49.296;6.900;2024-03-29T06:21:35;8.30;99.90
66568;DHT22;53422;49.296;6.900;2024-03-29T06:24:09;8.30;99.90
66568;DHT22;53422;49.296;6.900;2024-03-29T06:26:38;8.30;99.90
66568;DHT22;53422;49.296;6.900;2024-03-29T06:29:03;8.30;99.90
66568;DHT22;53422;49.296;6.900;2024-03-29T06:31:29;8.30;99.90
66568;DHT22;53422;49.296;6.900;2024-03-29T06:33:56;8.40;99.90
66568;DHT22;53422;49.296;6.900;2024-03-29T06:36:23;8.40;99.90
66568;DHT22;53422;49.296;6.900;2024-03-29T06:38:49;8.40;99.90
66568;DHT22;53422;49.296;6.900;2024-03-29T06:41:15;8.40;99.90
66568;DHT22;53422;49.296;6.900;2024-03-29T06:43:43;8.40;99.90
66568;DHT22;53422;49.296;6.900;2024-03-29T06:46:10;8.50;99.90
66568;DHT22;53422;49.296;6.900;2024-03-29T06:48:36;8.50;99.90
66568;DHT22;53422;49.296;6.900;2024-03-29T06:51:02;8.50;99.90
66568;DHT22;53422;49.296;6.900;2024-03-29T06:53:28;8.50;99.90
66568;DHT22;53422;49.296;6.900;2024-03-29T06:55:55;8.40;99.90
66568;DHT22;53422;49.296;6.900;2024-03-29T06:58:22;8.50;99.90
66568;DHT22;53422;49.296;6.900;2024-03-29T07:00:48;8.50;99.90
66568;DHT22;53422;49.296;6.900;2024-03-29T07:03:15;8.50;99.90
66568;DHT22;53422;49.296;6.900;2024-03-29T07:05:41;8.50;99.90
66568;DHT22;53422;49.296;6.900;2024-03-29T07:08:07;8.40;99.90
66568;DHT22;53422;49.296;6.900;2024-03-29T07:10:32;8.40;99.90
66568;DHT22;53422;49.296;6.900;2024-03-29T07:12:58;8.50;99.90
66568;DHT22;53422;49.296;6.900;2024-03-29T07:15:24;8.40;99.90
66568;DHT22;53422;49.296;6.900;2024-03-29T07:17:49;8.40;99.90
66568;DHT22;53422;49.296;6.900;2024-03-29T07:20:16;8.40;99.90
66568;DHT22;53422;49.296;6.900;2024-03-29T07:22:42;8.40;99.90
66568;DHT22;53422;49.296;6.900;2024-03-29T07:25:08;8.50;99.90
66568;DHT22;53422;49.296;6.900;2024-03-29T07:27:34;8.50;99.90
66568;DHT22;53422;49.296;6.900;2024-03-29T07:30:02;8.50;99.90
66568;DHT22;53422;49.296;6.900;2024-03-29T07:32:30;8.50;99.90
66568;DHT22;53422;49.296;6.900;2024-03-29T07:34:56;8.50;99.90
66568;DHT22;53422;49.296;6.900;2024-03-29T07:37:25;8.50;99.90
66568;DHT22;53422;49.296;6.900;2024-03-29T07:39:53;8.50;99.90
66568;DHT22;53422;49.296;6.900;2024-03-29T07:42:19;8.60;99.90
66568;DHT22;53422;49.296;6.900;2024-03-29T07:44:45;8.60;99.90
66568;DHT22;53422;49.296;6.900;2024-03-29T07:47:11;8.60;99.90
66568;DHT22;53422;49.296;6.900;2024-03-29T07:49:38;8.60;99.90
66568;DHT22;53422;49.296;6.900;2024-03-29T07:52:05;8.60;99.90
66568;DHT22;53422;49.296;6.900;2024-03-29T07:54:32;8.60;99.90
66568;DHT22;53422;49.296;6.900;2024-03-29T07:56:58;8.60;99.90
66568;DHT22;53422;49.296;6.900;2024-03-29T07:59:24;8.60;99.90
66568;DHT22;53422;49.296;6.900;2024-03-29T08:01:49;8.60;99.90
66568;DHT22;53422;49.296;6.900;2024-03-29T08:04:21;8.70;99.90
66568;DHT22;53422;49.296;6.900;2024-03-29T08:06:46;8.70;99.90
66568;DHT22;53422;49.296;6.900;2024-03-29T08:09:12;8.70;99.90
66568;DHT22;53422;49.296;6.900;2024-03-29T08:11:39;8.70;99.90
66568;DHT22;53422;49.296;6.900;2024-03-29T08:14:05;8.70;99.90
66568;DHT22;53422;49.296;6.900;2024-03-29T08:16:31;8.80;99.90
66568;DHT22;53422;49.296;6.900;2024-03-29T08:18:57;8.80;99.90
66568;DHT22;53422;49.296;6.900;2024-03-29T08:21:24;8.80;99.90
66568;DHT22;53422;49.296;6.900;2024-03-29T08:23:52;8.80;99.90
66568;DHT22;53422;49.296;6.900;2024-03-29T08:26:21;8.80;99.90
66568;DHT22;53422;49.296;6.900;2024-03-29T08:28:46;8.80;99.90
66568;DHT22;53422;49.296;6.900;2024-03-29T08:31:12;8.80;99.90
66568;DHT22;53422;49.296;6.900;2024-03-29T08:33:38;8.80;99.90
66568;DHT22;53422;49.296;6.900;2024-03-29T08:36:05;8.90;99.90
66568;DHT22;53422;49.296;6.900;2024-03-29T08:38:31;8.90;99.90
66568;DHT22;53422;49.296;6.900;2024-03-29T08:40:57;8.90;99.90
66568;DHT22;53422;49.296;6.900;2024-03-29T08:43:22;8.90;99.90
66568;DHT22;53422;49.296;6.900;2024-03-29T08:45:48;8.90;99.90
66568;DHT22;53422;49.296;6.900;2024-03-29T08:48:14;9.00;99.90
66568;DHT22;53422;49.296;6.900;2024-03-29T08:50:40;9.00;99.90
66568;DHT22;53422;49.296;6.900;2024-03-29T08:53:06;9.00;99.90
66568;DHT22;53422;49.296;6.900;2024-03-29T08:55:33;9.00;99.90
66568;DHT22;53422;49.296;6.900;2024-03-29T08:58:00;9.10;99.90
66568;DHT22;53422;49.296;6.900;2024-03-29T09:00:27;9.20;99.90
66568;DHT22;53422;49.296;6.900;2024-03-29T09:02:53;9.10;99.90
66568;DHT22;53422;49.296;6.900;2024-03-29T09:05:19;9.20;99.90
66568;DHT22;53422;49.296;6.900;2024-03-29T09:07:44;9.20;99.90
66568;DHT22;53422;49.296;6.900;2024-03-29T09:10:11;9.20;99.90
66568;DHT22;53422;49.296;6.900;2024-03-29T09:12:37;9.20;99.90
66568;DHT22;53422;49.296;6.900;2024-03-29T09:15:04;9.20;99.90
66568;DHT22;53422;49.296;6.900;2024-03-29T09:17:34;9.30;99.90
66568;DHT22;53422;49.296;6.900;2024-03-29T09:20:00;9.30;99.90
66568;DHT22;53422;49.296;6.900;2024-03-29T09:22:25;9.30;99.90
66568;DHT22;53422;49.296;6.900;2024-03-29T09:24:51;9.40;99.90
66568;DHT22;53422;49.296;6.900;2024-03-29T09:27:16;9.30;99.90
66568;DHT22;53422;49.296;6.900;2024-03-29T09:29:42;9.40;99.90
66568;DHT22;53422;49.296;6.900;2024-03-29T09:32:08;9.40;99.90
66568;DHT22;53422;49.296;6.900;2024-03-29T09:34:34;9.50;99.90
66568;DHT22;53422;49.296;6.900;2024-03-29T09:37:00;9.60;99.90
66568;DHT22;53422;49.296;6.900;2024-03-29T09:39:25;9.50;99.90
66568;DHT22;53422;49.296;6.900;2024-03-29T09:41:52;9.50;99.90
66568;DHT22;53422;49.296;6.900;2024-03-29T09:44:21;9.60;99.90
66568;DHT22;53422;49.296;6.900;2024-03-29T09:46:48;9.60;99.90
66568;DHT22;53422;49.296;6.900;2024-03-29T09:49:15;9.70;99.90
66568;DHT22;53422;49.296;6.900;2024-03-29T09:51:42;9.70;99.90
66568;DHT22;53422;49.296;6.900;2024-03-29T09:54:10;9.80;99.90
66568;DHT22;53422;49.296;6.900;2024-03-29T09:56:38;9.80;99.90
66568;DHT22;53422;49.296;6.900;2024-03-29T09:59:05;9.90;99.90
66568;DHT22;53422;49.296;6.900;2024-03-29T10:01:31;10.00;99.90
66568;DHT22;53422;49.296;6.900;2024-03-29T10:03:57;10.00;99.90
66568;DHT22;53422;49.296;6.900;2024-03-29T10:06:24;10.00;99.90
66568;DHT22;53422;49.296;6.900;2024-03-29T10:08:50;10.00;99.90
66568;DHT22;53422;49.296;6.900;2024-03-29T10:11:20;10.00;99.90
66568;DHT22;53422;49.296;6.900;2024-03-29T10:13:46;10.20;99.90
66568;DHT22;53422;49.296;6.900;2024-03-29T10:16:12;10.20;99.90
66568;DHT22;53422;49.296;6.900;2024-03-29T10:18:41;10.20;99.90
66568;DHT22;53422;49.296;6.900;2024-03-29T10:21:09;10.20;99.90
66568;DHT22;53422;49.296;6.900;2024-03-29T10:23:35;10.20;99.90
66568;DHT22;53422;49.296;6.900;2024-03-29T10:26:01;10.20;99.90
66568;DHT22;53422;49.296;6.900;2024-03-29T10:28:35;10.20;99.90
66568;DHT22;53422;49.296;6.900;2024-03-29T10:31:02;10.20;99.90
66568;DHT22;53422;49.296;6.900;2024-03-29T10:33:32;10.30;99.90
66568;DHT22;53422;49.296;6.900;2024-03-29T10:36:03;10.30;99.90
66568;DHT22;53422;49.296;6.900;2024-03-29T10:38:34;10.20;99.90
66568;DHT22;53422;49.296;6.900;2024-03-29T10:41:00;10.10;99.90
66568;DHT22;53422;49.296;6.900;2024-03-29T10:43:29;10.10;99.90
66568;DHT22;53422;49.296;6.900;2024-03-29T10:45:56;10.10;99.90
66568;DHT22;53422;49.296;6.900;2024-03-29T10:48:28;10.10;99.90
66568;DHT22;53422;49.296;6.900;2024-03-29T10:50:58;10.10;99.90
66568;DHT22;53422;49.296;6.900;2024-03-29T10:53:25;10.20;99.90
66568;DHT22;53422;49.296;6.900;2024-03-29T10:55:54;10.20;99.90
66568;DHT22;53422;49.296;6.900;2024-03-29T10:58:22;10.30;99.90
66568;DHT22;53422;49.296;6.900;2024-03-29T11:00:53;10.30;99.90
66568;DHT22;53422;49.296;6.900;2024-03-29T11:03:42;10.20;99.90
66568;DHT22;53422;49.296;6.900;2024-03-29T11:06:12;10.20;99.90
66568;DHT22;53422;49.296;6.900;2024-03-29T11:08:40;10.20;99.90
66568;DHT22;53422;49.296;6.900;2024-03-29T11:11:12;10.20;99.90
66568;DHT22;53422;49.296;6.900;2024-03-29T11:13:39;10.30;99.90
66568;DHT22;53422;49.296;6.900;2024-03-29T11:16:07;10.30;99.90
66568;DHT22;53422;49.296;6.900;2024-03-29T11:18:35;10.40;99.90
66568;DHT22;53422;49.296;6.900;2024-03-29T11:21:02;10.30;99.90
66568;DHT22;53422;49.296;6.900;2024-03-29T11:23:31;10.30;99.90
66568;DHT22;53422;49.296;6.900;2024-03-29T11:25:58;10.30;99.90
66568;DHT22;53422;49.296;6.900;2024-03-29T11:28:30;10.30;99.90
66568;DHT22;53422;49.296;6.900;2024-03-29T11:31:05;10.30;99.90
66568;DHT22;53422;49.296;6.900;2024-03-29T11:33:49;10.20;99.90
66568;DHT22;53422;49.296;6.900;2024-03-29T11:36:22;10.20;99.90
66568;DHT22;53422;49.296;6.900;2024-03-29T11:38:56;10.20;99.90
66568;DHT22;53422;49.296;6.900;2024-03-29T11:41:26;10.20;99.90
66568;DHT22;53422;49.296;6.900;2024-03-29T11:43:55;10.20;99.90
66568;DHT22;53422;49.296;6.900;2024-03-29T11:46:22;10.20;99.90
66568;DHT22;53422;49.296;6.900;2024-03-29T11:48:48;10.10;99.90
66568;DHT22;53422;49.296;6.900;2024-03-29T11:51:19;10.20;99.90
66568;DHT22;53422;49.296;6.900;2024-03-29T11:53:47;10.10;99.90
66568;DHT22;53422;49.296;6.900;2024-03-29T11:56:13;10.10;99.90
66568;DHT22;53422;49.296;6.900;2024-03-29T11:58:40;10.10;99.90
66568;DHT22;53422;49.296;6.900;2024-03-29T12:01:06;10.10;99.90
66568;DHT22;53422;49.296;6.900;2024-03-29T12:03:38;10.00;99.90
66568;DHT22;53422;49.296;6.900;2024-03-29T12:06:03;10.00;99.90
66568;DHT22;53422;49.296;6.900;2024-03-29T12:08:32;10.10;99.90
66568;DHT22;53422;49.296;6.900;2024-03-29T12:10:59;10.10;99.90
66568;DHT22;53422;49.296;6.900;2024-03-29T12:13:25;10.10;99.90
66568;DHT22;53422;49.296;6.900;2024-03-29T12:15:51;10.10;99.90
66568;DHT22;53422;49.296;6.900;2024-03-29T12:18:18;10.00;99.90
66568;DHT22;53422;49.296;6.900;2024-03-29T12:20:45;10.10;99.90
66568;DHT22;53422;49.296;6.900;2024-03-29T12:23:12;10.00;99.90
66568;DHT22;53422;49.296;6.900;2024-03-29T12:25:39;10.00;99.90
66568;DHT22;53422;49.296;6.900;2024-03-29T12:28:05;10.10;99.90
66568;DHT22;53422;49.296;6.900;2024-03-29T12:30:32;10.10;99.90
66568;DHT22;53422;49.296;6.900;2024-03-29T12:33:11;10.10;99.90
66568;DHT22;53422;49.296;6.900;2024-03-29T12:35:37;10.20;99.90
66568;DHT22;53422;49.296;6.900;2024-03-29T12:38:03;10.10;99.90
66568;DHT22;53422;49.296;6.900;2024-03-29T12:40:31;10.10;99.90
66568;DHT22;53422;49.296;6.900;2024-03-29T12:43:07;10.10;99.90
66568;DHT22;53422;49.296;6.900;2024-03-29T12:45:36;10.20;99.90
66568;DHT22;53422;49.296;6.900;2024-03-29T12:48:02;10.20;99.90
66568;DHT22;53422;49.296;6.900;2024-03-29T12:50:29;10.20;99.90
66568;DHT22;53422;49.296;6.900;2024-03-29T12:52:57;10.20;99.90
66568;DHT22;53422;49.296;6.900;2024-03-29T12:55:24;10.20;99.90
66568;DHT22;53422;49.296;6.900;2024-03-29T12:57:50;10.20;99.90
66568;DHT22;53422;49.296;6.900;2024-03-29T13:00:22;10.20;99.90
66568;DHT22;53422;49.296;6.900;2024-03-29T13:02:48;10.20;99.90
66568;DHT22;53422;49.296;6.900;2024-03-29T13:05:14;10.20;99.90
66568;DHT22;53422;49.296;6.900;2024-03-29T13:07:40;10.20;99.90
66568;DHT22;53422;49.296;6.900;2024-03-29T13:10:06;10.30;99.90
66568;DHT22;53422;49.296;6.900;2024-03-29T13:12:39;10.40;99.90
66568;DHT22;53422;49.296;6.900;2024-03-29T13:15:18;10.40;99.90
66568;DHT22;53422;49.296;6.900;2024-03-29T13:17:44;10.40;99.90
66568;DHT22;53422;49.296;6.900;2024-03-29T13:20:12;10.40;99.90
66568;DHT22;53422;49.296;6.900;2024-03-29T13:22:38;10.50;99.90
66568;DHT22;53422;49.296;6.900;2024-03-29T13:25:04;10.60;99.90
66568;DHT22;53422;49.296;6.900;2024-03-29T13:27:31;10.80;99.90
66568;DHT22;53422;49.296;6.900;2024-03-29T13:29:56;10.90;99.90
66568;DHT22;53422;49.296;6.900;2024-03-29T13:32:22;10.90;99.90
66568;DHT22;53422;49.296;6.900;2024-03-29T13:34:48;10.90;99.90
66568;DHT22;53422;49.296;6.900;2024-03-29T13:37:13;10.90;99.90
66568;DHT22;53422;49.296;6.900;2024-03-29T13:39:39;10.90;99.90
66568;DHT22;53422;49.296;6.900;2024-03-29T13:42:05;10.90;99.90
66568;DHT22;53422;49.296;6.900;2024-03-29T13:44:31;10.90;99.90
66568;DHT22;53422;49.296;6.900;2024-03-29T13:46:59;11.00;99.90
66568;DHT22;53422;49.296;6.900;2024-03-29T13:49:30;10.90;99.90
66568;DHT22;53422;49.296;6.900;2024-03-29T13:51:56;11.00;99.90
66568;DHT22;53422;49.296;6.900;2024-03-29T13:54:22;10.90;99.90
66568;DHT22;53422;49.296;6.900;2024-03-29T13:56:49;10.90;99.90
66568;DHT22;53422;49.296;6.900;2024-03-29T13:59:14;11.10;99.90
66568;DHT22;53422;49.296;6.900;2024-03-29T14:01:40;11.20;99.90
66568;DHT22;53422;49.296;6.900;2024-03-29T14:04:06;11.10;99.90
66568;DHT22;53422;49.296;6.900;2024-03-29T14:06:32;11.10;99.90
66568;DHT22;53422;49.296;6.900;2024-03-29T14:08:58;11.10;99.90
66568;DHT22;53422;49.296;6.900;2024-03-29T14:11:24;11.20;99.90
66568;DHT22;53422;49.296;6.900;2024-03-29T14:13:49;11.20;99.90
66568;DHT22;53422;49.296;6.900;2024-03-29T14:16:21;11.10;99.90
66568;DHT22;53422;49.296;6.900;2024-03-29T14:18:47;11.10;99.90
66568;DHT22;53422;49.296;6.900;2024-03-29T14:21:13;11.00;99.90
66568;DHT22;53422;49.296;6.900;2024-03-29T14:23:38;11.00;99.90
66568;DHT22;53422;49.296;6.900;2024-03-29T14:26:04;11.00;99.90
66568;DHT22;53422;49.296;6.900;2024-03-29T14:28:29;10.90;99.90
66568;DHT22;53422;49.296;6.900;2024-03-29T14:30:55;10.80;99.90
66568;DHT22;53422;49.296;6.900;2024-03-29T14:33:21;10.80;99.90
66568;DHT22;53422;49.296;6.900;2024-03-29T14:35:46;10.80;99.90
66568;DHT22;53422;49.296;6.900;2024-03-29T14:38:13;10.80;99.90
66568;DHT22;53422;49.296;6.900;2024-03-29T14:40:39;10.80;99.90
66568;DHT22;53422;49.296;6.900;2024-03-29T14:43:05;10.80;99.90
66568;DHT22;53422;49.296;6.900;2024-03-29T14:45:31;10.80;99.90
66568;DHT22;53422;49.296;6.900;2024-03-29T14:47:56;10.80;99.90
66568;DHT22;53422;49.296;6.900;2024-03-29T14:50:22;10.90;99.90
66568;DHT22;53422;49.296;6.900;2024-03-29T14:52:47;10.80;99.90
66568;DHT22;53422;49.296;6.900;2024-03-29T14:55:13;10.80;99.90
66568;DHT22;53422;49.296;6.900;2024-03-29T14:57:39;10.80;99.90
66568;DHT22;53422;49.296;6.900;2024-03-29T15:00:06;10.90;99.90
66568;DHT22;53422;49.296;6.900;2024-03-29T15:02:32;10.90;99.90
66568;DHT22;53422;49.296;6.900;2024-03-29T15:04:58;10.80;99.90
66568;DHT22;53422;49.296;6.900;2024-03-29T15:07:24;10.80;99.90
66568;DHT22;53422;49.296;6.900;2024-03-29T15:09:50;10.80;99.90
66568;DHT22;53422;49.296;6.900;2024-03-29T15:12:16;10.90;99.90
66568;DHT22;53422;49.296;6.900;2024-03-29T15:14:43;10.80;99.90
66568;DHT22;53422;49.296;6.900;2024-03-29T15:17:08;10.80;99.90
66568;DHT22;53422;49.296;6.900;2024-03-29T15:19:34;10.80;99.90
66568;DHT22;53422;49.296;6.900;2024-03-29T15:22:00;10.80;99.90
66568;DHT22;53422;49.296;6.900;2024-03-29T15:24:25;10.80;99.90
66568;DHT22;53422;49.296;6.900;2024-03-29T15:26:51;10.80;99.90
66568;DHT22;53422;49.296;6.900;2024-03-29T15:29:26;10.80;99.90
66568;DHT22;53422;49.296;6.900;2024-03-29T15:31:51;10.80;99.90
66568;DHT22;53422;49.296;6.900;2024-03-29T15:34:17;10.80;99.90
66568;DHT22;53422;49.296;6.900;2024-03-29T15:36:43;10.70;99.90
66568;DHT22;53422;49.296;6.900;2024-03-29T15:39:09;10.70;99.90